createdAt,value
2023-05-20T00:00:11.158Z,13.00
2023-05-20T00:02:38.867Z,13.00
2023-05-20T00:05:06.375Z,13.00
2023-05-20T00:07:33.492Z,12.90
2023-05-20T00:10:00.536Z,12.90
2023-05-20T00:12:27.485Z,12.90
2023-05-20T00:14:55.913Z,12.90
2023-05-20T00:17:23.432Z,12.90
2023-05-20T00:19:50.537Z,12.90
2023-05-20T00:22:17.526Z,12.80
2023-05-20T00:24:44.481Z,12.80
2023-05-20T00:27:11.376Z,12.80
2023-05-20T00:29:38.460Z,12.90
2023-05-20T00:32:05.691Z,12.80
2023-05-20T00:34:32.738Z,12.70
2023-05-20T00:36:59.758Z,12.60
2023-05-20T00:39:26.929Z,12.60
2023-05-20T00:41:53.920Z,12.50
2023-05-20T00:44:24.060Z,12.60
2023-05-20T00:46:51.049Z,12.50
2023-05-20T00:49:18.715Z,12.60
2023-05-20T00:51:46.164Z,12.60
2023-05-20T00:54:13.170Z,12.60
2023-05-20T00:56:41.188Z,12.60
2023-05-20T00:59:08.729Z,12.70
2023-05-20T01:01:35.738Z,12.60
2023-05-20T01:04:02.792Z,12.70
2023-05-20T01:06:29.814Z,12.70
2023-05-20T01:08:56.912Z,12.60
2023-05-20T01:11:31.340Z,12.70
2023-05-20T01:14:01.353Z,12.70
2023-05-20T01:16:28.883Z,12.70
2023-05-20T01:18:56.223Z,12.70
2023-05-20T01:21:23.462Z,12.80
2023-05-20T01:23:50.468Z,12.80
2023-05-20T01:26:18.887Z,12.90
2023-05-20T01:28:46.513Z,12.90
2023-05-20T01:31:33.865Z,12.90
2023-05-20T01:34:01.577Z,12.80
2023-05-20T01:36:29.418Z,12.80
2023-05-20T01:38:56.662Z,12.90
2023-05-20T01:41:25.245Z,12.90
2023-05-20T01:43:53.838Z,12.90
2023-05-20T01:46:20.901Z,12.90
2023-05-20T01:48:48.903Z,12.90
2023-05-20T01:51:16.228Z,12.90
2023-05-20T01:53:43.963Z,12.80
2023-05-20T01:56:10.942Z,12.90
2023-05-20T01:58:37.852Z,13.00
2023-05-20T02:01:04.846Z,13.00
2023-05-20T02:03:31.991Z,13.00
2023-05-20T02:05:59.797Z,12.90
2023-05-20T02:08:26.875Z,12.90
2023-05-20T02:10:53.825Z,13.10
2023-05-20T02:13:20.862Z,13.20
2023-05-20T02:15:48.706Z,13.20
2023-05-20T02:18:18.871Z,13.10
2023-05-20T02:20:46.697Z,13.20
2023-05-20T02:23:14.348Z,13.20
2023-05-20T02:25:41.426Z,13.30
2023-05-20T02:28:13.436Z,13.30
2023-05-20T02:30:40.658Z,13.30
2023-05-20T02:33:09.031Z,13.30
2023-05-20T02:35:36.990Z,13.30
2023-05-20T02:38:03.977Z,13.40
2023-05-20T02:40:31.005Z,13.40
2023-05-20T02:42:58.291Z,13.50
2023-05-20T02:45:25.539Z,13.50
2023-05-20T02:47:52.717Z,13.50
2023-05-20T02:50:20.089Z,13.50
2023-05-20T02:52:47.319Z,13.50
2023-05-20T02:55:14.414Z,13.60
2023-05-20T02:57:41.420Z,13.50
2023-05-20T03:00:13.701Z,13.40
2023-05-20T03:02:40.951Z,13.40
2023-05-20T03:05:08.548Z,13.30
2023-05-20T03:07:36.566Z,13.20
2023-05-20T03:10:06.698Z,13.20
2023-05-20T03:12:33.743Z,13.20
2023-05-20T03:15:01.245Z,13.20
2023-05-20T03:17:28.504Z,13.10
2023-05-20T03:19:57.297Z,13.10
2023-05-20T03:22:25.105Z,13.10
2023-05-20T03:24:52.984Z,13.00
2023-05-20T03:27:21.677Z,13.00
2023-05-20T03:29:48.948Z,13.00
2023-05-20T03:32:17.372Z,13.00
2023-05-20T03:34:44.510Z,13.00
2023-05-20T03:37:11.507Z,13.10
2023-05-20T03:39:38.388Z,13.00
2023-05-20T03:42:05.678Z,13.00
2023-05-20T03:44:32.946Z,12.90
2023-05-20T03:46:59.995Z,13.00
2023-05-20T03:49:26.985Z,13.10
2023-05-20T03:51:54.337Z,13.10
2023-05-20T03:54:21.450Z,13.10
2023-05-20T03:56:52.032Z,13.00
2023-05-20T03:59:19.321Z,13.10
2023-05-20T04:01:46.425Z,13.20
2023-05-20T04:04:13.426Z,13.30
2023-05-20T04:06:40.665Z,13.20
2023-05-20T04:09:07.832Z,13.20
2023-05-20T04:11:34.935Z,13.20
2023-05-20T04:14:01.895Z,13.30
2023-05-20T04:16:32.503Z,13.30
2023-05-20T04:19:00.042Z,13.30
2023-05-20T04:21:27.405Z,13.30
2023-05-20T04:23:54.425Z,13.40
2023-05-20T04:26:21.473Z,13.50
2023-05-20T04:28:49.722Z,13.40
2023-05-20T04:31:16.920Z,13.40
2023-05-20T04:33:44.689Z,13.50
2023-05-20T04:36:16.608Z,13.50
2023-05-20T04:38:44.833Z,13.60
2023-05-20T04:41:12.029Z,13.60
2023-05-20T04:43:40.315Z,13.60
2023-05-20T04:46:08.123Z,13.70
2023-05-20T04:48:35.626Z,13.70
2023-05-20T04:51:03.203Z,13.80
2023-05-20T04:53:31.743Z,13.90
2023-05-20T04:55:58.674Z,13.90
2023-05-20T04:58:25.734Z,14.00
2023-05-20T05:00:53.448Z,14.10
2023-05-20T05:03:20.714Z,14.10
2023-05-20T05:05:48.703Z,14.30
2023-05-20T05:08:17.438Z,14.30
2023-05-20T05:10:49.417Z,14.40
2023-05-20T05:13:16.824Z,14.40
2023-05-20T05:15:43.920Z,14.50
2023-05-20T05:18:12.207Z,14.50
2023-05-20T05:20:39.437Z,14.70
2023-05-20T05:23:07.223Z,14.80
2023-05-20T05:25:34.746Z,14.90
2023-05-20T05:28:01.951Z,14.90
2023-05-20T05:30:28.873Z,15.00
2023-05-20T05:32:56.046Z,15.10
2023-05-20T05:35:23.142Z,15.00
2023-05-20T05:37:50.862Z,15.00
2023-05-20T05:40:17.924Z,15.10
2023-05-20T05:42:45.557Z,15.20
2023-05-20T05:45:12.968Z,15.20
2023-05-20T05:47:41.358Z,15.20
2023-05-20T05:50:08.662Z,15.20
2023-05-20T05:52:36.046Z,15.40
2023-05-20T05:55:08.721Z,15.50
2023-05-20T05:57:35.973Z,15.60
2023-05-20T06:00:03.566Z,15.70
2023-05-20T06:02:36.798Z,15.90
2023-05-20T06:05:04.317Z,16.20
2023-05-20T06:07:31.304Z,16.40
2023-05-20T06:09:58.823Z,16.50
2023-05-20T06:12:25.844Z,16.80
2023-05-20T06:14:53.541Z,17.10
2023-05-20T06:17:21.025Z,16.80
2023-05-20T06:19:48.296Z,16.70
2023-05-20T06:22:16.389Z,16.70
2023-05-20T06:24:43.445Z,16.70
2023-05-20T06:27:10.470Z,16.70
2023-05-20T06:29:37.412Z,16.90
2023-05-20T06:32:04.653Z,16.90
2023-05-20T06:34:31.816Z,16.70
2023-05-20T06:36:59.129Z,16.90
2023-05-20T06:39:25.995Z,17.00
2023-05-20T06:41:52.959Z,17.20
2023-05-20T06:44:29.534Z,17.30
2023-05-20T06:47:01.646Z,17.50
2023-05-20T06:49:29.074Z,17.50
2023-05-20T06:51:55.971Z,17.70
2023-05-20T06:54:23.122Z,17.60
2023-05-20T06:56:50.086Z,17.40
2023-05-20T06:59:17.364Z,17.50
2023-05-20T07:01:44.579Z,17.70
2023-05-20T07:04:12.678Z,17.70
2023-05-20T07:06:39.800Z,17.70
2023-05-20T07:09:06.719Z,17.70
2023-05-20T07:11:33.903Z,17.80
2023-05-20T07:14:01.006Z,17.90
2023-05-20T07:16:30.238Z,17.90
2023-05-20T07:18:57.270Z,17.80
2023-05-20T07:21:24.575Z,18.00
2023-05-20T07:23:59.962Z,18.20
2023-05-20T07:26:27.216Z,18.10
2023-05-20T07:28:54.247Z,18.10
2023-05-20T07:31:21.383Z,18.20
2023-05-20T07:33:48.562Z,18.40
2023-05-20T07:36:15.734Z,18.50
2023-05-20T07:38:56.856Z,18.50
2023-05-20T07:41:29.540Z,18.40
2023-05-20T07:43:56.590Z,18.50
2023-05-20T07:46:23.826Z,18.70
2023-05-20T07:48:51.594Z,18.70
2023-05-20T07:51:19.109Z,18.70
2023-05-20T07:53:46.252Z,18.80
2023-05-20T07:56:13.468Z,19.10
2023-05-20T07:58:41.670Z,19.70
2023-05-20T08:01:09.626Z,20.30
2023-05-20T08:03:37.019Z,20.20
2023-05-20T08:06:09.351Z,20.40
2023-05-20T08:08:36.408Z,20.00
2023-05-20T08:11:09.965Z,20.40
2023-05-20T08:13:38.363Z,20.40
2023-05-20T08:16:08.662Z,20.60
2023-05-20T08:18:39.354Z,20.60
2023-05-20T08:21:09.993Z,21.00
2023-05-20T08:23:39.673Z,21.30
2023-05-20T08:26:07.768Z,21.70
2023-05-20T08:28:38.349Z,21.70
2023-05-20T08:31:05.572Z,21.90
2023-05-20T08:33:33.332Z,22.60
2023-05-20T08:36:00.967Z,22.40
2023-05-20T08:38:28.934Z,22.50
2023-05-20T08:40:57.160Z,22.20
2023-05-20T08:43:25.271Z,21.80
2023-05-20T08:45:52.850Z,21.60
2023-05-20T08:48:22.730Z,21.40
2023-05-20T08:50:52.679Z,21.60
2023-05-20T08:53:20.625Z,22.60
2023-05-20T08:55:52.743Z,22.70
2023-05-20T08:58:19.845Z,22.50
2023-05-20T09:00:47.019Z,22.30
2023-05-20T09:03:14.112Z,21.70
2023-05-20T09:05:41.452Z,20.70
2023-05-20T09:08:09.817Z,20.30
2023-05-20T09:10:37.256Z,20.40
2023-05-20T09:13:04.856Z,21.90
2023-05-20T09:15:32.818Z,23.40
2023-05-20T09:18:03.565Z,23.90
2023-05-20T09:20:31.769Z,23.80
2023-05-20T09:23:02.630Z,23.40
2023-05-20T09:25:29.663Z,22.20
2023-05-20T09:27:56.572Z,23.10
2023-05-20T09:30:23.944Z,24.30
2023-05-20T09:33:09.463Z,24.30
2023-05-20T09:35:39.467Z,24.50
2023-05-20T09:38:09.714Z,24.40
2023-05-20T09:40:38.085Z,25.40
2023-05-20T09:43:06.946Z,26.20
2023-05-20T09:45:34.616Z,26.60
2023-05-20T09:48:02.473Z,27.00
2023-05-20T09:50:30.156Z,27.80
2023-05-20T09:52:57.268Z,28.20
2023-05-20T09:55:24.988Z,27.50
2023-05-20T09:57:51.992Z,26.90
2023-05-20T10:00:19.844Z,26.30
2023-05-20T10:02:48.522Z,26.90
2023-05-20T10:05:27.608Z,27.10
2023-05-20T10:08:13.619Z,26.60
2023-05-20T10:11:05.268Z,24.90
2023-05-20T10:13:44.365Z,25.20
2023-05-20T10:16:14.157Z,26.20
2023-05-20T10:18:41.308Z,25.40
2023-05-20T10:21:18.139Z,26.40
2023-05-20T10:23:45.392Z,27.10
2023-05-20T10:26:12.343Z,27.10
2023-05-20T10:28:40.612Z,26.60
2023-05-20T10:31:22.959Z,26.30
2023-05-20T10:33:52.864Z,24.80
2023-05-20T10:36:24.048Z,24.30
2023-05-20T10:38:57.857Z,25.40
2023-05-20T10:41:26.777Z,26.30
2023-05-20T10:44:00.929Z,25.60
2023-05-20T10:46:36.550Z,25.00
2023-05-20T10:49:19.297Z,25.60
2023-05-20T10:51:47.126Z,25.90
2023-05-20T10:54:14.835Z,26.10
2023-05-20T10:56:51.529Z,26.30
2023-05-20T10:59:18.726Z,26.10
2023-05-20T11:01:46.544Z,25.30
2023-05-20T11:04:14.776Z,25.50
2023-05-20T11:06:49.703Z,26.00
2023-05-20T11:09:16.954Z,26.10
2023-05-20T11:11:43.999Z,26.30
2023-05-20T11:14:15.189Z,26.90
2023-05-20T11:16:42.509Z,27.00
2023-05-20T11:19:14.585Z,26.90
2023-05-20T11:21:47.836Z,26.90
2023-05-20T11:24:15.633Z,26.60
2023-05-20T11:26:42.553Z,26.30
2023-05-20T11:29:09.506Z,26.30
2023-05-20T11:31:37.838Z,25.80
2023-05-20T11:34:04.816Z,26.10
2023-05-20T11:36:32.544Z,27.40
2023-05-20T11:39:00.224Z,29.00
2023-05-20T11:41:27.891Z,28.90
2023-05-20T11:44:01.198Z,28.10
2023-05-20T11:46:28.692Z,28.40
2023-05-20T11:48:56.102Z,29.00
2023-05-20T11:51:29.753Z,29.30
2023-05-20T11:54:00.594Z,29.80
2023-05-20T11:56:31.715Z,30.10
2023-05-20T11:58:59.766Z,29.30
2023-05-20T12:01:28.412Z,29.00
2023-05-20T12:03:55.913Z,28.40
2023-05-20T12:06:22.967Z,29.60
2023-05-20T12:08:50.018Z,29.40
2023-05-20T12:11:17.166Z,27.90
2023-05-20T12:13:44.253Z,27.40
2023-05-20T12:16:11.248Z,28.00
2023-05-20T12:18:38.167Z,29.40
2023-05-20T12:21:05.182Z,28.90
2023-05-20T12:23:34.319Z,28.80
2023-05-20T12:26:01.448Z,28.70
2023-05-20T12:28:28.377Z,28.80
2023-05-20T12:30:55.542Z,30.20
2023-05-20T12:33:22.702Z,31.30
2023-05-20T12:35:49.698Z,32.40
2023-05-20T12:38:16.715Z,31.00
2023-05-20T12:40:44.162Z,28.40
2023-05-20T12:43:11.214Z,28.90
2023-05-20T12:45:38.139Z,30.90
2023-05-20T12:48:07.251Z,31.70
2023-05-20T12:50:34.439Z,30.80
2023-05-20T12:53:01.720Z,30.10
2023-05-20T12:55:28.667Z,29.80
2023-05-20T12:57:56.380Z,29.90
2023-05-20T13:00:23.424Z,29.80
2023-05-20T13:02:50.733Z,29.90
2023-05-20T13:05:17.892Z,30.10
2023-05-20T13:07:45.130Z,29.20
2023-05-20T13:10:12.605Z,28.30
2023-05-20T13:12:39.764Z,28.30
2023-05-20T13:15:07.387Z,27.80
2023-05-20T13:17:34.459Z,27.60
2023-05-20T13:20:01.500Z,27.10
2023-05-20T13:22:28.549Z,26.80
2023-05-20T13:24:55.434Z,26.60
2023-05-20T13:27:22.447Z,26.60
2023-05-20T13:29:49.576Z,26.50
2023-05-20T13:32:16.686Z,26.20
2023-05-20T13:34:43.725Z,26.60
2023-05-20T13:37:10.799Z,26.90
2023-05-20T13:39:37.709Z,28.60
2023-05-20T13:42:04.690Z,30.10
2023-05-20T13:44:32.677Z,29.60
2023-05-20T13:47:00.053Z,28.40
2023-05-20T13:49:27.106Z,27.40
2023-05-20T13:51:55.210Z,27.30
2023-05-20T13:54:22.256Z,27.80
2023-05-20T13:56:49.212Z,29.60
2023-05-20T13:59:16.207Z,30.70
2023-05-20T14:01:46.674Z,31.90
2023-05-20T14:04:13.691Z,33.10
2023-05-20T14:06:40.954Z,33.40
2023-05-20T14:09:11.127Z,32.90
2023-05-20T14:11:38.153Z,32.10
2023-05-20T14:14:05.131Z,30.80
2023-05-20T14:16:32.867Z,29.60
2023-05-20T14:19:00.130Z,29.30
2023-05-20T14:21:27.293Z,29.20
2023-05-20T14:23:54.286Z,28.70
2023-05-20T14:26:21.918Z,28.10
2023-05-20T14:28:49.145Z,28.30
2023-05-20T14:31:16.360Z,27.50
2023-05-20T14:33:43.323Z,26.90
2023-05-20T14:36:10.767Z,26.50
2023-05-20T14:38:37.755Z,27.40
2023-05-20T14:41:04.752Z,27.90
2023-05-20T14:43:32.245Z,29.10
2023-05-20T14:45:59.203Z,31.40
2023-05-20T14:48:26.120Z,32.70
2023-05-20T14:50:53.082Z,34.50
2023-05-20T14:53:20.154Z,34.70
2023-05-20T14:55:47.081Z,33.70
2023-05-20T14:58:14.095Z,32.00
2023-05-20T15:00:42.056Z,30.40
2023-05-20T15:03:09.206Z,30.40
2023-05-20T15:05:36.506Z,30.30
2023-05-20T15:08:03.926Z,31.40
2023-05-20T15:10:30.951Z,31.10
2023-05-20T17:38:10.231Z,22.70
2023-05-20T17:40:37.791Z,22.20
2023-05-20T17:43:05.099Z,22.00
2023-05-20T17:45:32.192Z,21.80
2023-05-20T17:47:59.372Z,21.80
2023-05-20T17:50:26.623Z,21.70
2023-05-20T17:52:53.678Z,21.70
2023-05-20T17:55:22.129Z,21.70
2023-05-20T17:57:49.181Z,21.50
2023-05-20T18:00:18.270Z,21.50
2023-05-20T18:02:48.175Z,21.30
2023-05-20T18:05:16.985Z,21.30
2023-05-20T18:07:44.117Z,21.30
2023-05-20T18:10:11.784Z,21.20
2023-05-20T18:12:38.843Z,21.10
2023-05-20T18:15:06.557Z,21.10
2023-05-20T18:17:33.806Z,21.00
2023-05-20T18:20:00.992Z,20.90
2023-05-20T18:22:28.092Z,20.80
2023-05-20T18:24:55.041Z,20.80
2023-05-20T18:27:21.968Z,20.60
2023-05-20T18:29:50.128Z,20.50
2023-05-20T18:32:17.267Z,20.40
2023-05-20T18:34:44.297Z,20.30
2023-05-20T18:37:11.310Z,20.20
2023-05-20T18:39:38.298Z,20.20
2023-05-20T18:42:05.700Z,20.10
2023-05-20T18:44:32.808Z,20.00
2023-05-20T18:46:59.888Z,19.90
2023-05-20T18:49:27.070Z,19.90
2023-05-20T18:51:54.151Z,19.80
2023-05-20T18:54:21.121Z,19.60
2023-05-20T18:56:51.346Z,19.50
2023-05-20T18:59:18.681Z,19.40
2023-05-20T19:01:45.688Z,19.40
2023-05-20T19:04:12.761Z,19.20
2023-05-20T19:06:40.359Z,19.20
2023-05-20T19:09:07.380Z,19.10
2023-05-20T19:11:34.623Z,19.10
2023-05-20T19:14:01.587Z,19.10
2023-05-20T19:16:28.769Z,19.10
2023-05-20T19:18:55.919Z,19.10
2023-05-20T19:21:22.868Z,19.20
2023-05-20T19:23:50.258Z,19.10
2023-05-20T19:26:18.422Z,19.10
2023-05-20T19:28:46.021Z,19.00
2023-05-20T19:31:15.736Z,19.00
2023-05-20T19:33:42.811Z,18.90
2023-05-20T19:36:09.801Z,18.80
2023-05-20T19:38:36.764Z,18.70
2023-05-20T19:41:03.688Z,18.70
2023-05-20T19:43:30.867Z,18.80
2023-05-20T19:45:57.994Z,18.70
2023-05-20T19:48:25.120Z,18.70
2023-05-20T19:50:52.195Z,18.60
2023-05-20T19:53:20.938Z,18.60
2023-05-20T19:55:47.883Z,18.50
2023-05-20T19:58:14.844Z,18.50
2023-05-20T20:00:42.016Z,18.50
2023-05-20T20:03:09.092Z,18.40
2023-05-20T20:05:36.820Z,18.40
2023-05-20T20:08:04.056Z,18.30
2023-05-20T20:10:31.596Z,18.40
2023-05-20T20:12:58.559Z,18.30
2023-05-20T20:15:27.123Z,18.30
2023-05-20T20:17:54.854Z,18.20
2023-05-20T20:20:23.571Z,18.30
2023-05-20T20:22:50.664Z,18.20
2023-05-20T20:25:17.745Z,18.20
2023-05-20T20:27:44.714Z,18.30
2023-05-20T20:30:13.480Z,18.20
2023-05-20T20:32:41.323Z,18.20
2023-05-20T20:35:08.718Z,18.10
2023-05-20T20:37:37.741Z,18.10
2023-05-20T20:40:05.866Z,18.00
2023-05-20T20:42:33.628Z,18.00
2023-05-20T20:45:00.645Z,18.00
2023-05-20T20:47:29.322Z,17.90
2023-05-20T20:49:56.687Z,17.90
2023-05-20T20:52:23.811Z,17.90
2023-05-20T20:54:50.764Z,17.90
2023-05-20T20:57:17.855Z,17.80
2023-05-20T20:59:48.166Z,17.80
2023-05-20T21:02:15.570Z,17.80
2023-05-20T21:04:43.201Z,17.70
2023-05-20T21:07:10.455Z,17.80
2023-05-20T21:09:37.605Z,17.70
2023-05-20T21:12:06.920Z,17.70
2023-05-20T21:14:34.083Z,17.60
2023-05-20T21:17:01.324Z,17.60
2023-05-20T21:19:30.025Z,17.60
2023-05-20T21:21:57.027Z,17.60
2023-05-20T21:24:23.954Z,17.60
2023-05-20T21:26:51.008Z,17.60
2023-05-20T21:29:18.053Z,17.50
2023-05-20T21:31:45.114Z,17.50
2023-05-20T21:34:12.113Z,17.40
2023-05-20T21:36:39.048Z,17.40
2023-05-20T21:39:06.100Z,17.30
2023-05-20T21:41:33.179Z,17.30
2023-05-20T21:44:00.266Z,17.30
2023-05-20T21:46:27.341Z,17.30
2023-05-20T21:48:54.390Z,17.20
2023-05-20T21:51:21.366Z,17.30
2023-05-20T21:53:48.312Z,17.20
2023-05-20T21:56:15.376Z,17.10
2023-05-20T21:58:42.430Z,17.20
2023-05-20T22:01:10.091Z,17.10
2023-05-20T22:03:38.553Z,17.10
2023-05-20T22:06:06.463Z,17.10
2023-05-20T22:08:33.934Z,17.00
2023-05-20T22:11:05.509Z,16.90
2023-05-20T22:13:33.831Z,16.90
2023-05-20T22:16:02.075Z,16.90
2023-05-20T22:18:29.548Z,16.80
2023-05-20T22:20:59.299Z,16.80
2023-05-20T22:23:26.888Z,16.70
2023-05-20T22:25:55.079Z,16.60
2023-05-20T22:28:23.767Z,16.60
2023-05-20T22:30:51.599Z,16.70
2023-05-20T22:33:18.919Z,16.60
2023-05-20T22:35:46.056Z,16.60
2023-05-20T22:38:13.171Z,16.50
2023-05-20T22:40:40.635Z,16.50
2023-05-20T22:43:07.987Z,16.50
2023-05-20T22:45:35.267Z,16.60
2023-05-20T22:48:03.843Z,16.50
2023-05-20T22:50:34.342Z,16.50
2023-05-20T22:53:02.222Z,16.40
2023-05-20T22:55:29.301Z,16.40
2023-05-20T22:57:56.273Z,16.40
2023-05-20T23:00:23.468Z,16.40
2023-05-20T23:02:52.484Z,16.50
2023-05-20T23:05:19.661Z,16.50
2023-05-20T23:07:46.737Z,16.60
2023-05-20T23:10:13.693Z,16.50
2023-05-20T23:12:40.765Z,16.40
2023-05-20T23:15:08.250Z,16.50
2023-05-20T23:17:35.340Z,16.60
2023-05-20T23:20:05.606Z,16.60
2023-05-20T23:22:32.945Z,16.70
2023-05-20T23:24:59.890Z,16.70
2023-05-20T23:27:27.013Z,16.70
2023-05-20T23:29:54.010Z,16.70
2023-05-20T23:32:21.003Z,16.70
2023-05-20T23:34:48.083Z,16.70
2023-05-20T23:37:15.095Z,16.80
2023-05-20T23:39:42.042Z,16.80
2023-05-20T23:42:08.996Z,16.80
2023-05-20T23:44:35.995Z,16.70
2023-05-20T23:47:04.120Z,16.60
2023-05-20T23:49:32.188Z,16.70
2023-05-20T23:51:59.235Z,16.70
2023-05-20T23:54:26.188Z,16.80
2023-05-20T23:56:53.345Z,16.70
2023-05-20T23:59:20.364Z,16.70
